sensor_id;sensor_type;location;lat;lon;timestamp;P1;durP1;ratioP1;P2;durP2;ratioP2
65189;SDS011;51777;53.570;9.984;2022-07-29T00:02:10;5.45;;;1.20;;
65189;SDS011;51777;53.570;9.984;2022-07-29T00:04:35;4.65;;;1.42;;
65189;SDS011;51777;53.570;9.984;2022-07-29T00:07:02;7.88;;;1.40;;
65189;SDS011;51777;53.570;9.984;2022-07-29T00:09:28;5.07;;;1.58;;
65189;SDS011;51777;53.570;9.984;2022-07-29T00:11:54;7.60;;;1.40;;
65189;SDS011;51777;53.570;9.984;2022-07-29T00:14:23;5.43;;;1.35;;
65189;SDS011;51777;53.570;9.984;2022-07-29T00:16:49;2.35;;;1.20;;
65189;SDS011;51777;53.570;9.984;2022-07-29T00:19:14;6.70;;;1.30;;
65189;SDS011;51777;53.570;9.984;2022-07-29T00:21:42;3.65;;;1.40;;
65189;SDS011;51777;53.570;9.984;2022-07-29T00:24:08;5.50;;;1.30;;
65189;SDS011;51777;53.570;9.984;2022-07-29T00:26:33;7.63;;;1.52;;
65189;SDS011;51777;53.570;9.984;2022-07-29T00:28:59;2.75;;;1.25;;
65189;SDS011;51777;53.570;9.984;2022-07-29T00:31:25;5.68;;;1.50;;
65189;SDS011;51777;53.570;9.984;2022-07-29T00:33:51;6.20;;;1.70;;
65189;SDS011;51777;53.570;9.984;2022-07-29T00:36:16;4.88;;;1.10;;
65189;SDS011;51777;53.570;9.984;2022-07-29T00:38:42;5.13;;;1.42;;
65189;SDS011;51777;53.570;9.984;2022-07-29T00:41:10;5.28;;;1.55;;
65189;SDS011;51777;53.570;9.984;2022-07-29T00:43:36;3.15;;;1.20;;
65189;SDS011;51777;53.570;9.984;2022-07-29T00:46:03;3.05;;;1.40;;
65189;SDS011;51777;53.570;9.984;2022-07-29T00:48:34;3.30;;;1.42;;
65189;SDS011;51777;53.570;9.984;2022-07-29T00:50:59;4.30;;;1.52;;
65189;SDS011;51777;53.570;9.984;2022-07-29T00:53:27;4.85;;;1.60;;
65189;SDS011;51777;53.570;9.984;2022-07-29T00:55:53;4.88;;;1.55;;
65189;SDS011;51777;53.570;9.984;2022-07-29T00:58:20;4.28;;;1.30;;
65189;SDS011;51777;53.570;9.984;2022-07-29T01:00:45;8.50;;;1.45;;
65189;SDS011;51777;53.570;9.984;2022-07-29T01:03:11;8.50;;;1.77;;
65189;SDS011;51777;53.570;9.984;2022-07-29T01:05:36;4.07;;;1.50;;
65189;SDS011;51777;53.570;9.984;2022-07-29T01:08:02;4.78;;;1.60;;
65189;SDS011;51777;53.570;9.984;2022-07-29T01:10:28;3.60;;;1.40;;
65189;SDS011;51777;53.570;9.984;2022-07-29T01:12:54;10.57;;;1.52;;
65189;SDS011;51777;53.570;9.984;2022-07-29T01:15:23;6.68;;;1.58;;
65189;SDS011;51777;53.570;9.984;2022-07-29T01:26:04;2.65;;;1.52;;
65189;SDS011;51777;53.570;9.984;2022-07-29T01:28:51;2.10;;;1.40;;
65189;SDS011;51777;53.570;9.984;2022-07-29T01:31:42;7.32;;;1.40;;
65189;SDS011;51777;53.570;9.984;2022-07-29T01:34:15;5.43;;;1.70;;
65189;SDS011;51777;53.570;9.984;2022-07-29T01:36:48;6.13;;;1.60;;
65189;SDS011;51777;53.570;9.984;2022-07-29T01:39:25;3.47;;;1.57;;
65189;SDS011;51777;53.570;9.984;2022-07-29T01:44:50;8.52;;;1.75;;
65189;SDS011;51777;53.570;9.984;2022-07-29T01:47:23;6.63;;;1.85;;
65189;SDS011;51777;53.570;9.984;2022-07-29T01:49:56;3.23;;;1.63;;
65189;SDS011;51777;53.570;9.984;2022-07-29T01:52:33;8.73;;;1.90;;
65189;SDS011;51777;53.570;9.984;2022-07-29T01:55:03;7.78;;;1.80;;
65189;SDS011;51777;53.570;9.984;2022-07-29T01:57:33;4.45;;;1.80;;
65189;SDS011;51777;53.570;9.984;2022-07-29T02:00:01;4.53;;;2.13;;
65189;SDS011;51777;53.570;9.984;2022-07-29T02:02:30;4.80;;;1.85;;
65189;SDS011;51777;53.570;9.984;2022-07-29T02:04:58;9.02;;;2.20;;
65189;SDS011;51777;53.570;9.984;2022-07-29T02:07:27;6.63;;;2.10;;
65189;SDS011;51777;53.570;9.984;2022-07-29T02:09:57;7.03;;;2.20;;
65189;SDS011;51777;53.570;9.984;2022-07-29T02:12:24;5.15;;;2.05;;
65189;SDS011;51777;53.570;9.984;2022-07-29T02:14:51;4.97;;;2.25;;
65189;SDS011;51777;53.570;9.984;2022-07-29T02:17:28;5.70;;;1.95;;
65189;SDS011;51777;53.570;9.984;2022-07-29T02:19:59;4.97;;;1.95;;
65189;SDS011;51777;53.570;9.984;2022-07-29T02:22:26;3.28;;;2.00;;
65189;SDS011;51777;53.570;9.984;2022-07-29T02:24:55;9.80;;;2.05;;
65189;SDS011;51777;53.570;9.984;2022-07-29T02:27:22;9.18;;;2.28;;
65189;SDS011;51777;53.570;9.984;2022-07-29T02:29:49;10.43;;;2.10;;
65189;SDS011;51777;53.570;9.984;2022-07-29T02:32:16;3.05;;;1.80;;
65189;SDS011;51777;53.570;9.984;2022-07-29T02:34:44;7.10;;;2.10;;
65189;SDS011;51777;53.570;9.984;2022-07-29T02:37:11;5.22;;;2.20;;
65189;SDS011;51777;53.570;9.984;2022-07-29T02:39:39;4.60;;;1.92;;
65189;SDS011;51777;53.570;9.984;2022-07-29T02:42:07;4.65;;;1.90;;
65189;SDS011;51777;53.570;9.984;2022-07-29T02:44:36;8.85;;;2.40;;
65189;SDS011;51777;53.570;9.984;2022-07-29T02:47:22;5.43;;;1.77;;
65189;SDS011;51777;53.570;9.984;2022-07-29T02:49:57;6.28;;;2.20;;
65189;SDS011;51777;53.570;9.984;2022-07-29T02:54:57;6.07;;;2.33;;
65189;SDS011;51777;53.570;9.984;2022-07-29T02:58:13;16.58;;;2.42;;
65189;SDS011;51777;53.570;9.984;2022-07-29T03:00:18;3.85;;;1.80;;
65189;SDS011;51777;53.570;9.984;2022-07-29T03:02:45;10.93;;;2.17;;
65189;SDS011;51777;53.570;9.984;2022-07-29T03:05:18;9.32;;;2.00;;
65189;SDS011;51777;53.570;9.984;2022-07-29T03:07:46;6.38;;;1.90;;
65189;SDS011;51777;53.570;9.984;2022-07-29T03:10:14;6.05;;;2.08;;
65189;SDS011;51777;53.570;9.984;2022-07-29T03:12:40;4.55;;;1.90;;
65189;SDS011;51777;53.570;9.984;2022-07-29T03:15:06;4.28;;;1.88;;
65189;SDS011;51777;53.570;9.984;2022-07-29T03:17:33;9.85;;;2.40;;
65189;SDS011;51777;53.570;9.984;2022-07-29T03:19:59;4.57;;;1.88;;
65189;SDS011;51777;53.570;9.984;2022-07-29T03:22:25;5.72;;;1.95;;
65189;SDS011;51777;53.570;9.984;2022-07-29T03:24:51;5.78;;;2.10;;
65189;SDS011;51777;53.570;9.984;2022-07-29T03:27:16;10.63;;;1.98;;
65189;SDS011;51777;53.570;9.984;2022-07-29T03:29:42;3.85;;;1.85;;
65189;SDS011;51777;53.570;9.984;2022-07-29T03:32:07;8.18;;;2.25;;
65189;SDS011;51777;53.570;9.984;2022-07-29T03:34:33;5.18;;;1.77;;
65189;SDS011;51777;53.570;9.984;2022-07-29T03:36:58;5.28;;;1.90;;
65189;SDS011;51777;53.570;9.984;2022-07-29T03:39:24;5.90;;;1.83;;
65189;SDS011;51777;53.570;9.984;2022-07-29T03:41:53;3.63;;;1.83;;
65189;SDS011;51777;53.570;9.984;2022-07-29T03:44:21;7.63;;;2.00;;
65189;SDS011;51777;53.570;9.984;2022-07-29T03:46:48;3.80;;;2.05;;
65189;SDS011;51777;53.570;9.984;2022-07-29T03:49:15;3.63;;;1.83;;
65189;SDS011;51777;53.570;9.984;2022-07-29T03:51:43;6.22;;;1.85;;
65189;SDS011;51777;53.570;9.984;2022-07-29T03:54:09;5.13;;;1.85;;
65189;SDS011;51777;53.570;9.984;2022-07-29T03:56:39;4.47;;;1.90;;
65189;SDS011;51777;53.570;9.984;2022-07-29T03:59:07;4.03;;;1.92;;
65189;SDS011;51777;53.570;9.984;2022-07-29T04:01:34;6.57;;;2.00;;
65189;SDS011;51777;53.570;9.984;2022-07-29T04:04:01;9.95;;;2.10;;
65189;SDS011;51777;53.570;9.984;2022-07-29T04:06:26;5.07;;;1.90;;
65189;SDS011;51777;53.570;9.984;2022-07-29T04:08:52;7.60;;;2.15;;
65189;SDS011;51777;53.570;9.984;2022-07-29T04:11:17;6.72;;;2.45;;
65189;SDS011;51777;53.570;9.984;2022-07-29T04:13:43;3.00;;;1.65;;
65189;SDS011;51777;53.570;9.984;2022-07-29T04:16:08;6.30;;;1.92;;
65189;SDS011;51777;53.570;9.984;2022-07-29T04:18:34;4.63;;;1.90;;
65189;SDS011;51777;53.570;9.984;2022-07-29T04:20:59;5.65;;;1.85;;
65189;SDS011;51777;53.570;9.984;2022-07-29T04:23:26;8.55;;;2.20;;
65189;SDS011;51777;53.570;9.984;2022-07-29T04:25:57;6.10;;;1.90;;
65189;SDS011;51777;53.570;9.984;2022-07-29T04:28:22;6.90;;;2.20;;
65189;SDS011;51777;53.570;9.984;2022-07-29T04:30:48;4.13;;;2.10;;
65189;SDS011;51777;53.570;9.984;2022-07-29T04:33:13;5.82;;;2.13;;
65189;SDS011;51777;53.570;9.984;2022-07-29T04:35:38;7.80;;;2.70;;
65189;SDS011;51777;53.570;9.984;2022-07-29T04:38:04;9.80;;;2.08;;
65189;SDS011;51777;53.570;9.984;2022-07-29T04:40:31;4.95;;;2.17;;
65189;SDS011;51777;53.570;9.984;2022-07-29T04:42:58;10.32;;;2.33;;
65189;SDS011;51777;53.570;9.984;2022-07-29T04:45:24;4.57;;;1.77;;
65189;SDS011;51777;53.570;9.984;2022-07-29T04:47:49;9.18;;;2.00;;
65189;SDS011;51777;53.570;9.984;2022-07-29T04:50:15;5.72;;;2.00;;
65189;SDS011;51777;53.570;9.984;2022-07-29T04:52:41;7.03;;;2.03;;
65189;SDS011;51777;53.570;9.984;2022-07-29T04:55:07;6.32;;;1.90;;
65189;SDS011;51777;53.570;9.984;2022-07-29T04:57:33;11.38;;;2.20;;
65189;SDS011;51777;53.570;9.984;2022-07-29T04:59:59;8.18;;;2.00;;
65189;SDS011;51777;53.570;9.984;2022-07-29T05:02:24;8.15;;;2.30;;
65189;SDS011;51777;53.570;9.984;2022-07-29T05:04:50;5.20;;;1.90;;
65189;SDS011;51777;53.570;9.984;2022-07-29T05:07:15;7.65;;;2.13;;
65189;SDS011;51777;53.570;9.984;2022-07-29T05:09:41;6.45;;;1.70;;
65189;SDS011;51777;53.570;9.984;2022-07-29T05:12:06;7.18;;;2.28;;
65189;SDS011;51777;53.570;9.984;2022-07-29T05:14:32;6.82;;;1.88;;
65189;SDS011;51777;53.570;9.984;2022-07-29T05:16:57;5.30;;;2.05;;
65189;SDS011;51777;53.570;9.984;2022-07-29T05:19:23;5.75;;;1.95;;
65189;SDS011;51777;53.570;9.984;2022-07-29T05:21:48;12.82;;;2.30;;
65189;SDS011;51777;53.570;9.984;2022-07-29T05:24:14;5.03;;;2.20;;
65189;SDS011;51777;53.570;9.984;2022-07-29T05:26:40;7.30;;;2.35;;
65189;SDS011;51777;53.570;9.984;2022-07-29T05:29:05;5.80;;;1.80;;
65189;SDS011;51777;53.570;9.984;2022-07-29T05:31:31;6.95;;;2.10;;
65189;SDS011;51777;53.570;9.984;2022-07-29T05:33:57;6.95;;;2.00;;
65189;SDS011;51777;53.570;9.984;2022-07-29T05:36:22;3.88;;;1.70;;
65189;SDS011;51777;53.570;9.984;2022-07-29T05:38:47;3.88;;;1.95;;
65189;SDS011;51777;53.570;9.984;2022-07-29T05:41:13;6.80;;;2.00;;
65189;SDS011;51777;53.570;9.984;2022-07-29T05:43:38;7.78;;;2.35;;
65189;SDS011;51777;53.570;9.984;2022-07-29T05:46:04;6.43;;;2.00;;
65189;SDS011;51777;53.570;9.984;2022-07-29T05:48:29;12.68;;;2.28;;
65189;SDS011;51777;53.570;9.984;2022-07-29T05:50:55;7.57;;;2.10;;
65189;SDS011;51777;53.570;9.984;2022-07-29T05:53:20;5.85;;;1.90;;
65189;SDS011;51777;53.570;9.984;2022-07-29T05:55:46;9.88;;;2.05;;
65189;SDS011;51777;53.570;9.984;2022-07-29T05:58:12;5.57;;;1.75;;
65189;SDS011;51777;53.570;9.984;2022-07-29T06:00:37;6.22;;;2.05;;
65189;SDS011;51777;53.570;9.984;2022-07-29T06:03:03;5.22;;;1.83;;
65189;SDS011;51777;53.570;9.984;2022-07-29T06:05:28;5.97;;;1.83;;
65189;SDS011;51777;53.570;9.984;2022-07-29T06:07:54;6.43;;;1.88;;
65189;SDS011;51777;53.570;9.984;2022-07-29T06:10:19;5.70;;;1.90;;
65189;SDS011;51777;53.570;9.984;2022-07-29T06:12:45;8.25;;;1.80;;
65189;SDS011;51777;53.570;9.984;2022-07-29T06:15:10;4.07;;;1.90;;
65189;SDS011;51777;53.570;9.984;2022-07-29T06:17:36;3.25;;;1.75;;
65189;SDS011;51777;53.570;9.984;2022-07-29T06:20:01;8.45;;;2.33;;
65189;SDS011;51777;53.570;9.984;2022-07-29T06:22:27;7.05;;;2.13;;
65189;SDS011;51777;53.570;9.984;2022-07-29T06:24:53;2.63;;;1.70;;
65189;SDS011;51777;53.570;9.984;2022-07-29T06:27:19;4.72;;;1.85;;
65189;SDS011;51777;53.570;9.984;2022-07-29T06:29:44;3.72;;;1.75;;
65189;SDS011;51777;53.570;9.984;2022-07-29T06:32:10;9.43;;;1.70;;
65189;SDS011;51777;53.570;9.984;2022-07-29T06:34:35;6.38;;;1.63;;
65189;SDS011;51777;53.570;9.984;2022-07-29T06:37:05;6.35;;;1.90;;
65189;SDS011;51777;53.570;9.984;2022-07-29T06:39:33;6.68;;;1.65;;
65189;SDS011;51777;53.570;9.984;2022-07-29T06:41:59;4.95;;;1.65;;
65189;SDS011;51777;53.570;9.984;2022-07-29T06:44:24;6.47;;;2.00;;
65189;SDS011;51777;53.570;9.984;2022-07-29T06:46:50;5.40;;;1.98;;
65189;SDS011;51777;53.570;9.984;2022-07-29T06:49:16;4.97;;;1.85;;
65189;SDS011;51777;53.570;9.984;2022-07-29T06:51:42;7.85;;;1.60;;
65189;SDS011;51777;53.570;9.984;2022-07-29T06:54:07;6.10;;;1.88;;
65189;SDS011;51777;53.570;9.984;2022-07-29T06:56:33;4.13;;;1.70;;
65189;SDS011;51777;53.570;9.984;2022-07-29T06:59:02;6.70;;;1.90;;
65189;SDS011;51777;53.570;9.984;2022-07-29T07:01:27;4.68;;;2.00;;
65189;SDS011;51777;53.570;9.984;2022-07-29T07:03:52;5.30;;;1.75;;
65189;SDS011;51777;53.570;9.984;2022-07-29T07:06:18;5.90;;;1.80;;
65189;SDS011;51777;53.570;9.984;2022-07-29T07:08:43;10.00;;;1.90;;
65189;SDS011;51777;53.570;9.984;2022-07-29T07:11:09;10.05;;;1.80;;
65189;SDS011;51777;53.570;9.984;2022-07-29T07:13:34;9.60;;;1.92;;
65189;SDS011;51777;53.570;9.984;2022-07-29T07:16:00;5.00;;;1.85;;
65189;SDS011;51777;53.570;9.984;2022-07-29T07:18:26;4.60;;;1.80;;
65189;SDS011;51777;53.570;9.984;2022-07-29T07:20:52;3.67;;;1.80;;
65189;SDS011;51777;53.570;9.984;2022-07-29T07:23:18;4.18;;;1.90;;
65189;SDS011;51777;53.570;9.984;2022-07-29T07:25:43;8.05;;;1.65;;
65189;SDS011;51777;53.570;9.984;2022-07-29T07:28:09;7.97;;;1.75;;
65189;SDS011;51777;53.570;9.984;2022-07-29T07:30:34;4.88;;;1.60;;
65189;SDS011;51777;53.570;9.984;2022-07-29T07:33:00;6.57;;;2.00;;
65189;SDS011;51777;53.570;9.984;2022-07-29T07:35:25;8.30;;;2.88;;
65189;SDS011;51777;53.570;9.984;2022-07-29T07:37:52;6.47;;;2.03;;
65189;SDS011;51777;53.570;9.984;2022-07-29T07:40:18;6.47;;;1.90;;
65189;SDS011;51777;53.570;9.984;2022-07-29T07:42:44;7.28;;;2.00;;
65189;SDS011;51777;53.570;9.984;2022-07-29T07:45:09;5.97;;;1.90;;
65189;SDS011;51777;53.570;9.984;2022-07-29T07:47:36;9.52;;;1.90;;
65189;SDS011;51777;53.570;9.984;2022-07-29T07:50:05;5.82;;;1.85;;
65189;SDS011;51777;53.570;9.984;2022-07-29T07:52:32;6.90;;;1.60;;
65189;SDS011;51777;53.570;9.984;2022-07-29T07:54:58;8.00;;;2.00;;
65189;SDS011;51777;53.570;9.984;2022-07-29T07:57:25;5.50;;;1.70;;
65189;SDS011;51777;53.570;9.984;2022-07-29T07:59:50;5.47;;;2.00;;
65189;SDS011;51777;53.570;9.984;2022-07-29T08:02:16;6.40;;;1.92;;
65189;SDS011;51777;53.570;9.984;2022-07-29T08:04:41;9.20;;;1.90;;
65189;SDS011;51777;53.570;9.984;2022-07-29T08:07:10;7.47;;;2.00;;
65189;SDS011;51777;53.570;9.984;2022-07-29T08:09:41;5.80;;;1.92;;
65189;SDS011;51777;53.570;9.984;2022-07-29T08:12:07;6.53;;;2.00;;
65189;SDS011;51777;53.570;9.984;2022-07-29T08:14:32;8.45;;;1.88;;
65189;SDS011;51777;53.570;9.984;2022-07-29T08:16:58;6.07;;;2.03;;
65189;SDS011;51777;53.570;9.984;2022-07-29T08:19:23;6.35;;;1.70;;
65189;SDS011;51777;53.570;9.984;2022-07-29T08:21:49;3.63;;;1.80;;
65189;SDS011;51777;53.570;9.984;2022-07-29T08:24:15;7.95;;;2.58;;
65189;SDS011;51777;53.570;9.984;2022-07-29T08:26:59;11.10;;;1.80;;
65189;SDS011;51777;53.570;9.984;2022-07-29T08:29:24;11.88;;;1.90;;
65189;SDS011;51777;53.570;9.984;2022-07-29T08:31:50;4.78;;;1.60;;
65189;SDS011;51777;53.570;9.984;2022-07-29T08:34:15;5.85;;;1.65;;
65189;SDS011;51777;53.570;9.984;2022-07-29T08:36:40;7.03;;;1.75;;
65189;SDS011;51777;53.570;9.984;2022-07-29T08:39:06;1.90;;;1.45;;
65189;SDS011;51777;53.570;9.984;2022-07-29T08:41:32;6.28;;;1.80;;
65189;SDS011;51777;53.570;9.984;2022-07-29T08:43:57;3.97;;;1.55;;
65189;SDS011;51777;53.570;9.984;2022-07-29T08:46:23;3.45;;;1.40;;
65189;SDS011;51777;53.570;9.984;2022-07-29T08:48:48;18.92;;;1.90;;
65189;SDS011;51777;53.570;9.984;2022-07-29T08:51:15;3.67;;;1.67;;
65189;SDS011;51777;53.570;9.984;2022-07-29T08:53:43;11.70;;;2.00;;
65189;SDS011;51777;53.570;9.984;2022-07-29T08:56:12;3.95;;;1.50;;
65189;SDS011;51777;53.570;9.984;2022-07-29T08:58:39;6.70;;;1.90;;
65189;SDS011;51777;53.570;9.984;2022-07-29T09:01:05;3.38;;;1.65;;
65189;SDS011;51777;53.570;9.984;2022-07-29T09:03:32;7.18;;;1.58;;
65189;SDS011;51777;53.570;9.984;2022-07-29T09:06:01;12.38;;;2.25;;
65189;SDS011;51777;53.570;9.984;2022-07-29T09:08:28;8.20;;;1.67;;
65189;SDS011;51777;53.570;9.984;2022-07-29T09:10:55;4.20;;;1.50;;
65189;SDS011;51777;53.570;9.984;2022-07-29T09:13:21;6.97;;;1.60;;
65189;SDS011;51777;53.570;9.984;2022-07-29T09:15:47;6.25;;;1.50;;
65189;SDS011;51777;53.570;9.984;2022-07-29T09:18:35;2.45;;;1.27;;
65189;SDS011;51777;53.570;9.984;2022-07-29T09:21:07;3.45;;;1.38;;
65189;SDS011;51777;53.570;9.984;2022-07-29T09:24:00;7.55;;;1.88;;
65189;SDS011;51777;53.570;9.984;2022-07-29T09:26:30;10.70;;;1.90;;
65189;SDS011;51777;53.570;9.984;2022-07-29T09:28:56;6.28;;;1.58;;
65189;SDS011;51777;53.570;9.984;2022-07-29T09:31:28;5.05;;;2.00;;
65189;SDS011;51777;53.570;9.984;2022-07-29T09:33:59;8.25;;;1.77;;
65189;SDS011;51777;53.570;9.984;2022-07-29T09:36:25;5.93;;;1.60;;
65189;SDS011;51777;53.570;9.984;2022-07-29T09:38:57;7.70;;;1.80;;
65189;SDS011;51777;53.570;9.984;2022-07-29T09:41:24;5.78;;;1.50;;
65189;SDS011;51777;53.570;9.984;2022-07-29T09:43:56;5.90;;;1.38;;
65189;SDS011;51777;53.570;9.984;2022-07-29T09:46:23;5.45;;;1.42;;
65189;SDS011;51777;53.570;9.984;2022-07-29T09:51:39;7.85;;;1.80;;
65189;SDS011;51777;53.570;9.984;2022-07-29T09:54:24;4.70;;;1.58;;
65189;SDS011;51777;53.570;9.984;2022-07-29T09:56:53;7.50;;;1.40;;
65189;SDS011;51777;53.570;9.984;2022-07-29T09:59:20;4.45;;;1.35;;
65189;SDS011;51777;53.570;9.984;2022-07-29T10:01:49;7.82;;;1.48;;
65189;SDS011;51777;53.570;9.984;2022-07-29T10:04:15;6.03;;;1.30;;
65189;SDS011;51777;53.570;9.984;2022-07-29T10:14:34;4.35;;;1.70;;
65189;SDS011;51777;53.570;9.984;2022-07-29T10:17:00;8.23;;;1.60;;
65189;SDS011;51777;53.570;9.984;2022-07-29T10:19:30;11.02;;;1.60;;
65189;SDS011;51777;53.570;9.984;2022-07-29T10:22:00;8.98;;;1.30;;
65189;SDS011;51777;53.570;9.984;2022-07-29T10:24:27;6.13;;;1.52;;
65189;SDS011;51777;53.570;9.984;2022-07-29T10:26:58;3.85;;;1.30;;
65189;SDS011;51777;53.570;9.984;2022-07-29T10:29:27;7.38;;;1.75;;
65189;SDS011;51777;53.570;9.984;2022-07-29T10:32:05;6.35;;;1.60;;
65189;SDS011;51777;53.570;9.984;2022-07-29T10:43:29;7.22;;;2.05;;
65189;SDS011;51777;53.570;9.984;2022-07-29T10:46:00;9.55;;;1.65;;
65189;SDS011;51777;53.570;9.984;2022-07-29T10:48:27;4.85;;;1.65;;
65189;SDS011;51777;53.570;9.984;2022-07-29T10:53:45;7.82;;;1.58;;
65189;SDS011;51777;53.570;9.984;2022-07-29T11:01:44;5.82;;;1.75;;
65189;SDS011;51777;53.570;9.984;2022-07-29T11:04:10;5.50;;;1.30;;
65189;SDS011;51777;53.570;9.984;2022-07-29T11:09:23;11.73;;;1.67;;
65189;SDS011;51777;53.570;9.984;2022-07-29T11:11:49;4.22;;;1.30;;
65189;SDS011;51777;53.570;9.984;2022-07-29T11:14:14;3.28;;;1.08;;
65189;SDS011;51777;53.570;9.984;2022-07-29T11:19:32;6.43;;;1.02;;
65189;SDS011;51777;53.570;9.984;2022-07-29T11:21:58;4.85;;;1.20;;
65189;SDS011;51777;53.570;9.984;2022-07-29T11:24:28;14.52;;;1.67;;
65189;SDS011;51777;53.570;9.984;2022-07-29T11:29:56;5.65;;;1.17;;
65189;SDS011;51777;53.570;9.984;2022-07-29T11:32:25;5.95;;;1.35;;
65189;SDS011;51777;53.570;9.984;2022-07-29T11:37:39;5.00;;;1.20;;
65189;SDS011;51777;53.570;9.984;2022-07-29T11:47:21;6.65;;;1.25;;
65189;SDS011;51777;53.570;9.984;2022-07-29T11:49:47;8.48;;;1.30;;
65189;SDS011;51777;53.570;9.984;2022-07-29T11:52:16;4.88;;;1.15;;
65189;SDS011;51777;53.570;9.984;2022-07-29T11:54:47;3.03;;;1.40;;
65189;SDS011;51777;53.570;9.984;2022-07-29T11:57:14;5.85;;;1.52;;
65189;SDS011;51777;53.570;9.984;2022-07-29T11:59:42;4.75;;;1.20;;
65189;SDS011;51777;53.570;9.984;2022-07-29T12:02:09;6.50;;;0.93;;
65189;SDS011;51777;53.570;9.984;2022-07-29T12:04:54;10.23;;;1.33;;
65189;SDS011;51777;53.570;9.984;2022-07-29T12:07:30;7.55;;;1.50;;
65189;SDS011;51777;53.570;9.984;2022-07-29T12:09:57;4.63;;;1.23;;
65189;SDS011;51777;53.570;9.984;2022-07-29T12:12:22;5.95;;;1.20;;
65189;SDS011;51777;53.570;9.984;2022-07-29T12:14:48;6.32;;;1.00;;
65189;SDS011;51777;53.570;9.984;2022-07-29T12:17:27;8.98;;;1.10;;
65189;SDS011;51777;53.570;9.984;2022-07-29T12:19:58;8.70;;;1.33;;
65189;SDS011;51777;53.570;9.984;2022-07-29T12:22:29;3.75;;;1.23;;
65189;SDS011;51777;53.570;9.984;2022-07-29T12:25:05;8.48;;;1.20;;
65189;SDS011;51777;53.570;9.984;2022-07-29T12:27:37;6.05;;;1.05;;
65189;SDS011;51777;53.570;9.984;2022-07-29T12:30:13;4.07;;;1.10;;
65189;SDS011;51777;53.570;9.984;2022-07-29T12:32:49;6.63;;;1.13;;
65189;SDS011;51777;53.570;9.984;2022-07-29T12:35:15;6.70;;;1.52;;
65189;SDS011;51777;53.570;9.984;2022-07-29T12:37:44;8.23;;;1.27;;
65189;SDS011;51777;53.570;9.984;2022-07-29T12:40:13;3.92;;;1.15;;
65189;SDS011;51777;53.570;9.984;2022-07-29T12:42:41;6.57;;;1.30;;
65189;SDS011;51777;53.570;9.984;2022-07-29T12:45:33;8.35;;;1.30;;
65189;SDS011;51777;53.570;9.984;2022-07-29T12:47:58;11.95;;;1.40;;
65189;SDS011;51777;53.570;9.984;2022-07-29T12:50:24;8.90;;;1.20;;
65189;SDS011;51777;53.570;9.984;2022-07-29T12:52:50;5.63;;;1.13;;
65189;SDS011;51777;53.570;9.984;2022-07-29T12:55:15;3.40;;;1.38;;
65189;SDS011;51777;53.570;9.984;2022-07-29T12:58:01;9.93;;;1.23;;
65189;SDS011;51777;53.570;9.984;2022-07-29T13:00:26;8.38;;;1.40;;
65189;SDS011;51777;53.570;9.984;2022-07-29T13:02:56;4.88;;;1.10;;
65189;SDS011;51777;53.570;9.984;2022-07-29T13:05:22;4.32;;;1.70;;
65189;SDS011;51777;53.570;9.984;2022-07-29T13:07:49;7.78;;;1.20;;
65189;SDS011;51777;53.570;9.984;2022-07-29T13:10:18;7.22;;;1.35;;
65189;SDS011;51777;53.570;9.984;2022-07-29T13:15:39;11.27;;;1.30;;
65189;SDS011;51777;53.570;9.984;2022-07-29T13:20:55;3.70;;;0.90;;
65189;SDS011;51777;53.570;9.984;2022-07-29T13:23:20;6.55;;;1.10;;
65189;SDS011;51777;53.570;9.984;2022-07-29T13:25:46;3.42;;;1.08;;
65189;SDS011;51777;53.570;9.984;2022-07-29T13:28:11;4.60;;;1.00;;
65189;SDS011;51777;53.570;9.984;2022-07-29T13:30:37;6.10;;;1.20;;
65189;SDS011;51777;53.570;9.984;2022-07-29T13:33:04;8.55;;;1.10;;
65189;SDS011;51777;53.570;9.984;2022-07-29T13:35:30;3.80;;;1.10;;
65189;SDS011;51777;53.570;9.984;2022-07-29T13:37:55;4.65;;;1.20;;
65189;SDS011;51777;53.570;9.984;2022-07-29T13:40:21;11.68;;;1.33;;
65189;SDS011;51777;53.570;9.984;2022-07-29T13:42:46;10.07;;;1.52;;
65189;SDS011;51777;53.570;9.984;2022-07-29T13:45:12;4.10;;;1.30;;
65189;SDS011;51777;53.570;9.984;2022-07-29T13:47:37;8.35;;;1.23;;
65189;SDS011;51777;53.570;9.984;2022-07-29T13:50:04;9.82;;;1.33;;
65189;SDS011;51777;53.570;9.984;2022-07-29T13:52:31;4.20;;;1.25;;
65189;SDS011;51777;53.570;9.984;2022-07-29T13:54:56;6.95;;;1.38;;
65189;SDS011;51777;53.570;9.984;2022-07-29T13:57:22;12.35;;;1.38;;
65189;SDS011;51777;53.570;9.984;2022-07-29T13:59:47;15.95;;;1.70;;
65189;SDS011;51777;53.570;9.984;2022-07-29T14:02:13;7.32;;;1.33;;
65189;SDS011;51777;53.570;9.984;2022-07-29T14:04:38;3.80;;;1.30;;
65189;SDS011;51777;53.570;9.984;2022-07-29T14:07:04;5.80;;;1.33;;
65189;SDS011;51777;53.570;9.984;2022-07-29T14:09:31;6.82;;;1.30;;
65189;SDS011;51777;53.570;9.984;2022-07-29T14:11:56;3.85;;;1.30;;
65189;SDS011;51777;53.570;9.984;2022-07-29T14:14:22;7.80;;;1.30;;
65189;SDS011;51777;53.570;9.984;2022-07-29T14:16:47;14.73;;;1.42;;
65189;SDS011;51777;53.570;9.984;2022-07-29T14:19:12;11.20;;;1.40;;
65189;SDS011;51777;53.570;9.984;2022-07-29T14:21:38;5.15;;;1.30;;
65189;SDS011;51777;53.570;9.984;2022-07-29T14:24:04;3.67;;;1.40;;
65189;SDS011;51777;53.570;9.984;2022-07-29T14:26:30;16.25;;;1.60;;
65189;SDS011;51777;53.570;9.984;2022-07-29T14:28:55;10.55;;;1.67;;
65189;SDS011;51777;53.570;9.984;2022-07-29T14:31:20;8.63;;;1.80;;
65189;SDS011;51777;53.570;9.984;2022-07-29T14:33:46;10.10;;;1.75;;
65189;SDS011;51777;53.570;9.984;2022-07-29T14:36:12;3.80;;;1.17;;
65189;SDS011;51777;53.570;9.984;2022-07-29T14:38:37;11.95;;;1.60;;
65189;SDS011;51777;53.570;9.984;2022-07-29T14:41:03;5.95;;;1.40;;
65189;SDS011;51777;53.570;9.984;2022-07-29T14:43:29;9.50;;;1.40;;
65189;SDS011;51777;53.570;9.984;2022-07-29T14:45:55;5.07;;;1.33;;
65189;SDS011;51777;53.570;9.984;2022-07-29T14:48:20;12.73;;;1.63;;
65189;SDS011;51777;53.570;9.984;2022-07-29T14:50:46;2.97;;;1.30;;
65189;SDS011;51777;53.570;9.984;2022-07-29T14:53:11;5.25;;;1.27;;
65189;SDS011;51777;53.570;9.984;2022-07-29T14:55:39;7.65;;;1.63;;
65189;SDS011;51777;53.570;9.984;2022-07-29T14:58:07;9.93;;;2.60;;
65189;SDS011;51777;53.570;9.984;2022-07-29T15:00:32;7.32;;;1.50;;
65189;SDS011;51777;53.570;9.984;2022-07-29T15:03:01;5.07;;;1.38;;
65189;SDS011;51777;53.570;9.984;2022-07-29T15:05:27;5.68;;;1.13;;
65189;SDS011;51777;53.570;9.984;2022-07-29T15:07:52;7.20;;;1.58;;
65189;SDS011;51777;53.570;9.984;2022-07-29T15:10:18;5.97;;;1.27;;
65189;SDS011;51777;53.570;9.984;2022-07-29T15:12:44;7.00;;;1.10;;
65189;SDS011;51777;53.570;9.984;2022-07-29T15:15:09;6.30;;;1.10;;
65189;SDS011;51777;53.570;9.984;2022-07-29T15:17:34;4.15;;;1.27;;
65189;SDS011;51777;53.570;9.984;2022-07-29T15:20:00;3.95;;;1.20;;
65189;SDS011;51777;53.570;9.984;2022-07-29T15:22:25;9.88;;;1.30;;
65189;SDS011;51777;53.570;9.984;2022-07-29T15:24:51;6.78;;;1.40;;
65189;SDS011;51777;53.570;9.984;2022-07-29T15:27:17;6.72;;;1.42;;
65189;SDS011;51777;53.570;9.984;2022-07-29T15:29:42;10.50;;;1.40;;
65189;SDS011;51777;53.570;9.984;2022-07-29T15:32:08;4.55;;;1.30;;
65189;SDS011;51777;53.570;9.984;2022-07-29T15:34:34;4.00;;;1.38;;
65189;SDS011;51777;53.570;9.984;2022-07-29T15:37:00;6.13;;;1.40;;
65189;SDS011;51777;53.570;9.984;2022-07-29T15:39:25;8.95;;;1.30;;
65189;SDS011;51777;53.570;9.984;2022-07-29T15:41:51;4.32;;;1.30;;
65189;SDS011;51777;53.570;9.984;2022-07-29T15:44:18;8.13;;;1.40;;
65189;SDS011;51777;53.570;9.984;2022-07-29T15:46:43;8.75;;;1.45;;
65189;SDS011;51777;53.570;9.984;2022-07-29T15:49:27;4.32;;;1.45;;
65189;SDS011;51777;53.570;9.984;2022-07-29T15:54:37;11.75;;;1.50;;
65189;SDS011;51777;53.570;9.984;2022-07-29T15:57:04;2.67;;;1.20;;